X  Close Metar Aviation Weather Data     KSTC Saint Cloud Regional Airport
Temperature
64°F Temperature
63°F Dewpoint
94% Humidity



Wind
7 MPH
11 KM/H
3 M/S
6 KTS



130°
SE
Current Conditions

Mostly Cloudy Mostly Cloudy
Pressure 1006.1 (hPa) - 29.71 (inHg)
Visibility 10 (mile) - 16.1 (km)
Airport
Airport-code KSTC

Location: Saint Cloud Regional Airport
Distance: 6 (mi)

Metar:
KSTC 160553Z AUTO 13006KT 10SM BKN009 OVC025 18/17 A2971 RMK AO2 CIG 007V013 SLP063 60010 T01780167 10178 20172 402220167 56011

Time: 06-16-2024 12:53 am CDT